sensor_id;sensor_type;location;lat;lon;timestamp;pressure;altitude;pressure_sealevel;temperature;humidity
77574;BME280;66710;48.868;9.080;2023-03-12T00:00:34;97666.75;;;-2.16;74.34
77574;BME280;66710;48.868;9.080;2023-03-12T00:02:59;97670.66;;;-2.12;74.52
77574;BME280;66710;48.868;9.080;2023-03-12T00:05:24;97667.59;;;-2.09;74.06
77574;BME280;66710;48.868;9.080;2023-03-12T00:07:50;97674.81;;;-2.03;73.20
77574;BME280;66710;48.868;9.080;2023-03-12T00:10:17;97670.84;;;-2.14;72.17
77574;BME280;66710;48.868;9.080;2023-03-12T00:12:42;97680.09;;;-2.16;71.51
77574;BME280;66710;48.868;9.080;2023-03-12T00:15:08;97672.06;;;-2.16;74.35
77574;BME280;66710;48.868;9.080;2023-03-12T00:17:34;97677.22;;;-2.15;73.75
77574;BME280;66710;48.868;9.080;2023-03-12T00:20:00;97677.00;;;-2.20;73.38
77574;BME280;66710;48.868;9.080;2023-03-12T00:22:25;97673.91;;;-2.23;73.99
77574;BME280;66710;48.868;9.080;2023-03-12T00:24:51;97674.50;;;-2.21;73.86
77574;BME280;66710;48.868;9.080;2023-03-12T00:27:18;97675.53;;;-2.22;72.89
77574;BME280;66710;48.868;9.080;2023-03-12T00:29:43;97679.00;;;-2.29;73.94
77574;BME280;66710;48.868;9.080;2023-03-12T00:32:09;97671.38;;;-2.32;74.58
77574;BME280;66710;48.868;9.080;2023-03-12T00:34:34;97666.66;;;-2.30;75.32
77574;BME280;66710;48.868;9.080;2023-03-12T00:37:00;97662.56;;;-2.32;74.95
77574;BME280;66710;48.868;9.080;2023-03-12T00:39:25;97658.88;;;-2.38;75.08
77574;BME280;66710;48.868;9.080;2023-03-12T00:41:50;97667.09;;;-2.33;75.23
77574;BME280;66710;48.868;9.080;2023-03-12T00:44:16;97668.91;;;-2.33;74.97
77574;BME280;66710;48.868;9.080;2023-03-12T00:46:41;97658.25;;;-2.33;74.57
77574;BME280;66710;48.868;9.080;2023-03-12T00:49:06;97662.75;;;-2.34;73.91
77574;BME280;66710;48.868;9.080;2023-03-12T00:51:32;97654.59;;;-2.25;74.25
77574;BME280;66710;48.868;9.080;2023-03-12T00:53:57;97667.31;;;-2.27;74.31
77574;BME280;66710;48.868;9.080;2023-03-12T00:56:22;97663.19;;;-2.30;73.77
77574;BME280;66710;48.868;9.080;2023-03-12T00:58:48;97664.22;;;-2.24;73.80
77574;BME280;66710;48.868;9.080;2023-03-12T01:01:13;97664.06;;;-2.16;73.43
77574;BME280;66710;48.868;9.080;2023-03-12T01:03:39;97656.66;;;-2.21;73.74
77574;BME280;66710;48.868;9.080;2023-03-12T01:06:05;97655.63;;;-2.26;74.08
77574;BME280;66710;48.868;9.080;2023-03-12T01:08:30;97659.09;;;-2.33;74.43
77574;BME280;66710;48.868;9.080;2023-03-12T01:10:55;97660.91;;;-2.33;75.27
77574;BME280;66710;48.868;9.080;2023-03-12T01:13:21;97656.44;;;-2.33;74.80
77574;BME280;66710;48.868;9.080;2023-03-12T01:15:47;97657.84;;;-2.30;74.92
77574;BME280;66710;48.868;9.080;2023-03-12T01:18:12;97663.81;;;-2.28;74.40
77574;BME280;66710;48.868;9.080;2023-03-12T01:20:37;97666.06;;;-2.32;75.01
77574;BME280;66710;48.868;9.080;2023-03-12T01:23:04;97664.22;;;-2.31;74.50
77574;BME280;66710;48.868;9.080;2023-03-12T01:25:29;97659.75;;;-2.24;74.62
77574;BME280;66710;48.868;9.080;2023-03-12T01:27:55;97659.75;;;-2.24;73.99
77574;BME280;66710;48.868;9.080;2023-03-12T01:30:20;97661.00;;;-2.13;74.78
77574;BME280;66710;48.868;9.080;2023-03-12T01:32:45;97660.97;;;-2.20;73.81
77574;BME280;66710;48.868;9.080;2023-03-12T01:35:11;97661.00;;;-2.13;73.68
77574;BME280;66710;48.868;9.080;2023-03-12T01:37:36;97670.25;;;-2.09;73.95
77574;BME280;66710;48.868;9.080;2023-03-12T01:40:02;97659.59;;;-2.02;73.68
77574;BME280;66710;48.868;9.080;2023-03-12T01:42:27;97662.69;;;-1.99;73.92
77574;BME280;66710;48.868;9.080;2023-03-12T01:45:01;97667.84;;;-1.97;73.92
77574;BME280;66710;48.868;9.080;2023-03-12T01:47:28;97661.25;;;-2.01;74.05
77574;BME280;66710;48.868;9.080;2023-03-12T01:49:58;97669.66;;;-1.98;74.49
77574;BME280;66710;48.868;9.080;2023-03-12T01:52:28;97668.06;;;-1.92;74.15
77574;BME280;66710;48.868;9.080;2023-03-12T01:55:02;97665.97;;;-1.97;73.65
77574;BME280;66710;48.868;9.080;2023-03-12T02:00:00;97655.31;;;-1.97;73.57
77574;BME280;66710;48.868;9.080;2023-03-12T02:02:28;97654.53;;;-1.91;74.94
77574;BME280;66710;48.868;9.080;2023-03-12T02:05:08;97654.06;;;-1.94;75.06
77574;BME280;66710;48.868;9.080;2023-03-12T02:07:35;97653.25;;;-1.95;74.87
77574;BME280;66710;48.868;9.080;2023-03-12T02:10:01;97655.72;;;-1.93;74.49
77574;BME280;66710;48.868;9.080;2023-03-12T02:12:27;97647.72;;;-1.93;74.48
77574;BME280;66710;48.868;9.080;2023-03-12T02:14:52;97652.25;;;-1.94;75.16
77574;BME280;66710;48.868;9.080;2023-03-12T02:17:18;97662.31;;;-1.96;74.48
77574;BME280;66710;48.868;9.080;2023-03-12T02:22:17;97656.13;;;-1.96;74.64
77574;BME280;66710;48.868;9.080;2023-03-12T02:24:52;97654.69;;;-1.99;75.10
77574;BME280;66710;48.868;9.080;2023-03-12T02:27:21;97648.31;;;-1.98;74.24
77574;BME280;66710;48.868;9.080;2023-03-12T02:29:47;97647.06;;;-2.02;75.70
77574;BME280;66710;48.868;9.080;2023-03-12T02:32:33;97650.97;;;-2.04;76.27
77574;BME280;66710;48.868;9.080;2023-03-12T02:35:00;97656.13;;;-2.03;75.80
77574;BME280;66710;48.868;9.080;2023-03-12T02:37:27;97646.03;;;-2.07;75.32
77574;BME280;66710;48.868;9.080;2023-03-12T02:39:56;97647.91;;;-2.08;75.91
77574;BME280;66710;48.868;9.080;2023-03-12T02:42:25;97648.72;;;-2.07;76.09
77574;BME280;66710;48.868;9.080;2023-03-12T02:44:50;97654.06;;;-2.07;75.45
77574;BME280;66710;48.868;9.080;2023-03-12T02:47:15;97647.25;;;-2.10;75.99
77574;BME280;66710;48.868;9.080;2023-03-12T02:49:41;97648.28;;;-2.11;75.07
77574;BME280;66710;48.868;9.080;2023-03-12T02:52:06;97645.84;;;-2.06;75.76
77574;BME280;66710;48.868;9.080;2023-03-12T02:54:32;97645.44;;;-2.10;75.73
77574;BME280;66710;48.868;9.080;2023-03-12T02:56:57;97651.19;;;-2.06;75.89
77574;BME280;66710;48.868;9.080;2023-03-12T02:59:23;97645.44;;;-2.03;76.04
77574;BME280;66710;48.868;9.080;2023-03-12T03:01:54;97647.69;;;-2.06;75.41
77574;BME280;66710;48.868;9.080;2023-03-12T03:04:20;97644.81;;;-2.05;75.20
77574;BME280;66710;48.868;9.080;2023-03-12T03:06:45;97650.56;;;-2.08;75.49
77574;BME280;66710;48.868;9.080;2023-03-12T03:09:12;97642.13;;;-2.05;75.76
77574;BME280;66710;48.868;9.080;2023-03-12T03:11:38;97632.50;;;-2.06;75.58
77574;BME280;66710;48.868;9.080;2023-03-12T03:14:03;97634.97;;;-2.04;76.64
77574;BME280;66710;48.868;9.080;2023-03-12T03:16:30;97632.31;;;-2.04;75.47
77574;BME280;66710;48.868;9.080;2023-03-12T03:18:56;97619.56;;;-2.09;76.98
77574;BME280;66710;48.868;9.080;2023-03-12T03:21:21;97616.53;;;-1.99;75.98
77574;BME280;66710;48.868;9.080;2023-03-12T03:23:48;97620.63;;;-1.97;76.36
77574;BME280;66710;48.868;9.080;2023-03-12T03:26:15;97618.97;;;-1.91;76.56
77574;BME280;66710;48.868;9.080;2023-03-12T03:28:42;97613.66;;;-1.84;75.25
77574;BME280;66710;48.868;9.080;2023-03-12T03:31:07;97615.50;;;-1.85;75.91
77574;BME280;66710;48.868;9.080;2023-03-12T03:33:35;97627.84;;;-1.77;75.31
77574;BME280;66710;48.868;9.080;2023-03-12T03:36:02;97624.78;;;-1.74;75.89
77574;BME280;66710;48.868;9.080;2023-03-12T03:38:31;97623.53;;;-1.72;75.76
77574;BME280;66710;48.868;9.080;2023-03-12T03:40:57;97624.78;;;-1.67;75.48
77574;BME280;66710;48.868;9.080;2023-03-12T03:43:23;97627.88;;;-1.64;75.92
77574;BME280;66710;48.868;9.080;2023-03-12T03:45:56;97628.69;;;-1.57;73.95
77574;BME280;66710;48.868;9.080;2023-03-12T03:48:22;97622.53;;;-1.50;74.40
77574;BME280;66710;48.868;9.080;2023-03-12T03:50:47;97620.88;;;-1.45;74.58
77574;BME280;66710;48.868;9.080;2023-03-12T03:53:12;97626.03;;;-1.37;72.88
77574;BME280;66710;48.868;9.080;2023-03-12T03:55:38;97618.59;;;-1.41;74.52
77574;BME280;66710;48.868;9.080;2023-03-12T03:58:04;97614.53;;;-1.37;74.54
77574;BME280;66710;48.868;9.080;2023-03-12T04:00:30;97603.00;;;-1.31;74.62
77574;BME280;66710;48.868;9.080;2023-03-12T04:02:55;97589.63;;;-1.31;74.48
77574;BME280;66710;48.868;9.080;2023-03-12T04:05:21;97607.13;;;-1.28;75.19
77574;BME280;66710;48.868;9.080;2023-03-12T04:07:46;97604.84;;;-1.18;75.26
77574;BME280;66710;48.868;9.080;2023-03-12T04:10:12;97608.53;;;-1.19;75.34
77574;BME280;66710;48.868;9.080;2023-03-12T04:12:38;97616.78;;;-1.14;74.74
77574;BME280;66710;48.868;9.080;2023-03-12T04:15:04;97611.63;;;-1.09;74.99
77574;BME280;66710;48.868;9.080;2023-03-12T04:17:29;97610.97;;;-1.04;74.81
77574;BME280;66710;48.868;9.080;2023-03-12T04:19:55;97614.06;;;-1.01;75.30
77574;BME280;66710;48.868;9.080;2023-03-12T04:22:20;97612.03;;;-0.99;73.96
77574;BME280;66710;48.868;9.080;2023-03-12T04:24:45;97597.19;;;-0.94;74.30
77574;BME280;66710;48.868;9.080;2023-03-12T04:27:11;97601.31;;;-0.92;74.76
77574;BME280;66710;48.868;9.080;2023-03-12T04:29:36;97611.78;;;-0.90;74.88
77574;BME280;66710;48.868;9.080;2023-03-12T04:32:04;97614.25;;;-0.89;74.64
77574;BME280;66710;48.868;9.080;2023-03-12T04:34:29;97620.81;;;-0.85;74.31
77574;BME280;66710;48.868;9.080;2023-03-12T04:36:55;97611.38;;;-0.81;73.88
77574;BME280;66710;48.868;9.080;2023-03-12T04:39:20;97609.69;;;-0.75;73.49
77574;BME280;66710;48.868;9.080;2023-03-12T04:41:45;97618.53;;;-0.74;74.27
77574;BME280;66710;48.868;9.080;2023-03-12T04:44:11;97620.59;;;-0.70;73.42
77574;BME280;66710;48.868;9.080;2023-03-12T04:46:37;97615.03;;;-0.68;73.27
77574;BME280;66710;48.868;9.080;2023-03-12T04:49:03;97618.94;;;-0.64;74.00
77574;BME280;66710;48.868;9.080;2023-03-12T04:51:29;97611.72;;;-0.64;73.72
77574;BME280;66710;48.868;9.080;2023-03-12T04:53:56;97610.69;;;-0.63;73.54
77574;BME280;66710;48.868;9.080;2023-03-12T04:56:21;97608.41;;;-0.59;73.23
77574;BME280;66710;48.868;9.080;2023-03-12T04:58:47;97605.75;;;-0.59;73.84
77574;BME280;66710;48.868;9.080;2023-03-12T05:01:23;97609.63;;;-0.55;73.97
77574;BME280;66710;48.868;9.080;2023-03-12T05:03:48;97602.84;;;-0.51;73.89
77574;BME280;66710;48.868;9.080;2023-03-12T05:06:14;97611.28;;;-0.54;73.69
77574;BME280;66710;48.868;9.080;2023-03-12T05:08:39;97599.72;;;-0.48;73.90
77574;BME280;66710;48.868;9.080;2023-03-12T05:11:04;97594.78;;;-0.44;73.64
77574;BME280;66710;48.868;9.080;2023-03-12T05:13:29;97594.16;;;-0.46;73.84
77574;BME280;66710;48.868;9.080;2023-03-12T05:15:55;97601.19;;;-0.45;73.38
77574;BME280;66710;48.868;9.080;2023-03-12T05:18:20;97598.09;;;-0.42;73.90
77574;BME280;66710;48.868;9.080;2023-03-12T05:20:46;97601.38;;;-0.40;73.79
77574;BME280;66710;48.868;9.080;2023-03-12T05:23:12;97595.41;;;-0.42;73.95
77574;BME280;66710;48.868;9.080;2023-03-12T05:25:38;97593.13;;;-0.39;73.65
77574;BME280;66710;48.868;9.080;2023-03-12T05:28:04;97593.72;;;-0.36;73.50
77574;BME280;66710;48.868;9.080;2023-03-12T05:30:29;97600.28;;;-0.32;73.15
77574;BME280;66710;48.868;9.080;2023-03-12T05:32:55;97596.81;;;-0.33;73.80
77574;BME280;66710;48.868;9.080;2023-03-12T05:35:20;97602.16;;;-0.33;73.83
77574;BME280;66710;48.868;9.080;2023-03-12T05:37:45;97603.97;;;-0.27;73.93
77574;BME280;66710;48.868;9.080;2023-03-12T05:40:11;97606.03;;;-0.29;74.34
77574;BME280;66710;48.868;9.080;2023-03-12T05:42:36;97614.66;;;-0.20;73.42
77574;BME280;66710;48.868;9.080;2023-03-12T05:45:03;97610.75;;;-0.17;74.05
77574;BME280;66710;48.868;9.080;2023-03-12T05:47:29;97619.16;;;-0.14;74.00
77574;BME280;66710;48.868;9.080;2023-03-12T05:49:54;97614.41;;;-0.12;74.61
77574;BME280;66710;48.868;9.080;2023-03-12T05:52:20;97623.03;;;-0.10;76.36
77574;BME280;66710;48.868;9.080;2023-03-12T05:54:51;97613.16;;;-0.09;77.44
77574;BME280;66710;48.868;9.080;2023-03-12T05:57:16;97609.06;;;-0.12;77.79
77574;BME280;66710;48.868;9.080;2023-03-12T05:59:41;97609.44;;;-0.08;78.21
77574;BME280;66710;48.868;9.080;2023-03-12T06:02:07;97608.63;;;-0.09;78.16
77574;BME280;66710;48.868;9.080;2023-03-12T06:04:32;97605.97;;;-0.09;78.59
77574;BME280;66710;48.868;9.080;2023-03-12T06:06:57;97607.81;;;-0.16;78.81
77574;BME280;66710;48.868;9.080;2023-03-12T06:09:23;97605.56;;;-0.12;77.97
77574;BME280;66710;48.868;9.080;2023-03-12T06:11:48;97606.56;;;-0.07;77.01
77574;BME280;66710;48.868;9.080;2023-03-12T06:14:13;97601.38;;;-0.02;76.64
77574;BME280;66710;48.868;9.080;2023-03-12T06:16:39;97606.09;;;-0.04;77.85
77574;BME280;66710;48.868;9.080;2023-03-12T06:19:04;97599.09;;;0.02;77.25
77574;BME280;66710;48.868;9.080;2023-03-12T06:21:33;97602.59;;;0.03;76.85
77574;BME280;66710;48.868;9.080;2023-03-12T06:23:59;97601.13;;;0.07;76.63
77574;BME280;66710;48.868;9.080;2023-03-12T06:26:25;97599.88;;;0.09;76.66
77574;BME280;66710;48.868;9.080;2023-03-12T06:28:51;97593.09;;;0.07;77.68
77574;BME280;66710;48.868;9.080;2023-03-12T06:31:18;97591.84;;;0.09;78.03
77574;BME280;66710;48.868;9.080;2023-03-12T06:33:44;97592.22;;;0.13;78.22
77574;BME280;66710;48.868;9.080;2023-03-12T06:36:09;97584.38;;;0.18;78.24
77574;BME280;66710;48.868;9.080;2023-03-12T06:38:35;97581.47;;;0.20;78.19
77574;BME280;66710;48.868;9.080;2023-03-12T06:41:04;97576.50;;;0.23;77.85
77574;BME280;66710;48.868;9.080;2023-03-12T06:43:33;97581.00;;;0.29;77.56
77574;BME280;66710;48.868;9.080;2023-03-12T06:46:00;97578.69;;;0.33;78.57
77574;BME280;66710;48.868;9.080;2023-03-12T06:48:29;97575.97;;;0.40;77.85
77574;BME280;66710;48.868;9.080;2023-03-12T06:50:55;97576.34;;;0.43;77.90
77574;BME280;66710;48.868;9.080;2023-03-12T06:53:21;97588.94;;;0.43;79.61
77574;BME280;66710;48.868;9.080;2023-03-12T06:55:48;97584.56;;;0.48;80.69
77574;BME280;66710;48.868;9.080;2023-03-12T06:58:14;97590.09;;;0.53;80.22
77574;BME280;66710;48.868;9.080;2023-03-12T07:00:39;97593.38;;;0.55;80.90
77574;BME280;66710;48.868;9.080;2023-03-12T07:03:05;97586.97;;;0.56;81.81
77574;BME280;66710;48.868;9.080;2023-03-12T07:05:30;97591.25;;;0.64;82.11
77574;BME280;66710;48.868;9.080;2023-03-12T07:07:56;97591.63;;;0.68;81.98
77574;BME280;66710;48.868;9.080;2023-03-12T07:10:21;97586.63;;;0.71;82.39
77574;BME280;66710;48.868;9.080;2023-03-12T07:12:47;97588.81;;;0.81;83.53
77574;BME280;66710;48.868;9.080;2023-03-12T07:15:13;97593.53;;;0.86;83.52
77574;BME280;66710;48.868;9.080;2023-03-12T07:17:39;97599.25;;;0.89;84.20
77574;BME280;66710;48.868;9.080;2023-03-12T07:20:05;97593.84;;;0.96;84.21
77574;BME280;66710;48.868;9.080;2023-03-12T07:22:31;97595.66;;;1.21;85.30
77574;BME280;66710;48.868;9.080;2023-03-12T07:24:56;97587.91;;;1.31;83.85
77574;BME280;66710;48.868;9.080;2023-03-12T07:27:25;97601.03;;;1.39;84.12
77574;BME280;66710;48.868;9.080;2023-03-12T07:29:50;97600.44;;;1.56;83.76
77574;BME280;66710;48.868;9.080;2023-03-12T07:32:16;97593.28;;;1.68;83.19
77574;BME280;66710;48.868;9.080;2023-03-12T07:34:42;97594.09;;;1.68;83.07
77574;BME280;66710;48.868;9.080;2023-03-12T07:37:07;97601.97;;;1.82;81.76
77574;BME280;66710;48.868;9.080;2023-03-12T07:39:32;97601.44;;;1.92;81.82
77574;BME280;66710;48.868;9.080;2023-03-12T07:41:58;97600.97;;;1.95;81.42
77574;BME280;66710;48.868;9.080;2023-03-12T07:44:23;97598.56;;;2.05;81.75
77574;BME280;66710;48.868;9.080;2023-03-12T07:46:50;97593.56;;;2.08;81.30
77574;BME280;66710;48.868;9.080;2023-03-12T07:49:16;97586.69;;;2.13;80.50
77574;BME280;66710;48.868;9.080;2023-03-12T07:51:41;97594.44;;;2.33;80.35
77574;BME280;66710;48.868;9.080;2023-03-12T07:54:06;97588.38;;;2.37;79.65
77574;BME280;66710;48.868;9.080;2023-03-12T07:56:32;97598.91;;;2.39;80.35
77574;BME280;66710;48.868;9.080;2023-03-12T07:58:57;97592.06;;;2.55;79.33
77574;BME280;66710;48.868;9.080;2023-03-12T08:01:22;97595.41;;;2.38;80.03
77574;BME280;66710;48.868;9.080;2023-03-12T08:03:49;97591.97;;;2.31;80.71
77574;BME280;66710;48.868;9.080;2023-03-12T08:06:14;97593.44;;;2.45;80.13
77574;BME280;66710;48.868;9.080;2023-03-12T08:08:40;97599.72;;;2.39;79.77
77574;BME280;66710;48.868;9.080;2023-03-12T08:11:07;97601.81;;;2.37;80.14
77574;BME280;66710;48.868;9.080;2023-03-12T08:13:33;97599.72;;;2.39;80.91
77574;BME280;66710;48.868;9.080;2023-03-12T08:15:58;97604.41;;;2.44;81.33
77574;BME280;66710;48.868;9.080;2023-03-12T08:18:24;97605.00;;;2.46;82.36
77574;BME280;66710;48.868;9.080;2023-03-12T08:20:51;97607.78;;;2.39;82.81
77574;BME280;66710;48.868;9.080;2023-03-12T08:23:17;97616.50;;;2.23;83.37
77574;BME280;66710;48.868;9.080;2023-03-12T08:25:47;97619.28;;;2.16;83.16
77574;BME280;66710;48.868;9.080;2023-03-12T08:28:14;97605.72;;;2.11;84.40
77574;BME280;66710;48.868;9.080;2023-03-12T08:30:47;97610.28;;;2.11;85.00
77574;BME280;66710;48.868;9.080;2023-03-12T08:33:12;97610.63;;;2.14;85.11
77574;BME280;66710;48.868;9.080;2023-03-12T08:35:38;97618.75;;;2.38;84.95
77574;BME280;66710;48.868;9.080;2023-03-12T08:38:03;97622.31;;;2.50;84.55
77574;BME280;66710;48.868;9.080;2023-03-12T08:40:28;97621.72;;;2.48;84.38
77574;BME280;66710;48.868;9.080;2023-03-12T08:42:54;97625.22;;;2.49;85.58
77574;BME280;66710;48.868;9.080;2023-03-12T08:45:19;97608.88;;;2.50;85.39
77574;BME280;66710;48.868;9.080;2023-03-12T08:47:44;97619.28;;;2.58;85.19
77574;BME280;66710;48.868;9.080;2023-03-12T08:50:11;97623.66;;;2.83;85.54
77574;BME280;66710;48.868;9.080;2023-03-12T08:52:37;97617.81;;;2.98;85.75
77574;BME280;66710;48.868;9.080;2023-03-12T08:55:03;97612.19;;;2.99;85.13
77574;BME280;66710;48.868;9.080;2023-03-12T08:57:30;97610.56;;;3.10;85.48
77574;BME280;66710;48.868;9.080;2023-03-12T08:59:55;97604.84;;;3.07;84.28
77574;BME280;66710;48.868;9.080;2023-03-12T09:02:20;97599.47;;;3.18;83.84
77574;BME280;66710;48.868;9.080;2023-03-12T09:04:47;97600.63;;;3.34;83.64
77574;BME280;66710;48.868;9.080;2023-03-12T09:07:13;97603.66;;;3.26;82.71
77574;BME280;66710;48.868;9.080;2023-03-12T09:09:38;97599.53;;;3.47;84.00
77574;BME280;66710;48.868;9.080;2023-03-12T09:12:04;97605.38;;;3.56;83.08
77574;BME280;66710;48.868;9.080;2023-03-12T09:14:29;97607.59;;;3.71;83.33
77574;BME280;66710;48.868;9.080;2023-03-12T09:16:56;97601.19;;;3.89;82.85
77574;BME280;66710;48.868;9.080;2023-03-12T09:19:21;97601.41;;;3.99;82.12
77574;BME280;66710;48.868;9.080;2023-03-12T09:21:46;97602.13;;;3.94;82.13
77574;BME280;66710;48.868;9.080;2023-03-12T09:24:12;97604.09;;;3.99;82.21
77574;BME280;66710;48.868;9.080;2023-03-12T09:26:37;97610.53;;;3.98;81.59
77574;BME280;66710;48.868;9.080;2023-03-12T09:29:03;97612.53;;;4.03;81.88
77574;BME280;66710;48.868;9.080;2023-03-12T09:31:28;97618.44;;;4.16;82.38
77574;BME280;66710;48.868;9.080;2023-03-12T09:33:53;97617.09;;;4.31;81.96
77574;BME280;66710;48.868;9.080;2023-03-12T09:36:19;97620.78;;;4.42;81.24
77574;BME280;66710;48.868;9.080;2023-03-12T09:38:44;97627.28;;;4.58;81.09
77574;BME280;66710;48.868;9.080;2023-03-12T09:41:25;97633.00;;;4.61;81.10
77574;BME280;66710;48.868;9.080;2023-03-12T09:46:30;97620.41;;;4.67;82.02
77574;BME280;66710;48.868;9.080;2023-03-12T09:49:01;97625.66;;;4.73;81.95
77574;BME280;66710;48.868;9.080;2023-03-12T09:51:37;97628.69;;;4.77;83.79
77574;BME280;66710;48.868;9.080;2023-03-12T09:54:06;97623.38;;;4.82;83.08
77574;BME280;66710;48.868;9.080;2023-03-12T09:56:33;97622.16;;;5.07;84.34
77574;BME280;66710;48.868;9.080;2023-03-12T09:58:59;97626.53;;;5.13;83.43
77574;BME280;66710;48.868;9.080;2023-03-12T10:01:31;97631.19;;;5.35;83.87
77574;BME280;66710;48.868;9.080;2023-03-12T10:07:07;97635.25;;;5.54;84.30
77574;BME280;66710;48.868;9.080;2023-03-12T10:09:48;97631.13;;;5.68;83.25
77574;BME280;66710;48.868;9.080;2023-03-12T10:12:42;97623.25;;;5.89;83.12
77574;BME280;66710;48.868;9.080;2023-03-12T10:17:55;97623.66;;;6.20;82.41
77574;BME280;66710;48.868;9.080;2023-03-12T10:23:01;97637.34;;;6.35;82.41
77574;BME280;66710;48.868;9.080;2023-03-12T10:25:36;97629.84;;;6.42;83.35
77574;BME280;66710;48.868;9.080;2023-03-12T10:28:33;97634.19;;;6.43;82.88
77574;BME280;66710;48.868;9.080;2023-03-12T10:31:14;97636.88;;;6.43;82.99
77574;BME280;66710;48.868;9.080;2023-03-12T10:33:51;97642.97;;;6.56;82.69
77574;BME280;66710;48.868;9.080;2023-03-12T10:36:22;97645.72;;;6.61;82.62
77574;BME280;66710;48.868;9.080;2023-03-12T10:38:48;97654.16;;;6.64;82.99
77574;BME280;66710;48.868;9.080;2023-03-12T10:41:26;97647.19;;;6.74;82.76
77574;BME280;66710;48.868;9.080;2023-03-12T10:43:53;97654.25;;;6.75;82.34
77574;BME280;66710;48.868;9.080;2023-03-12T10:49:26;97664.44;;;6.95;82.92
77574;BME280;66710;48.868;9.080;2023-03-12T10:51:56;97658.91;;;7.12;82.23
77574;BME280;66710;48.868;9.080;2023-03-12T10:54:30;97670.69;;;7.28;83.01
77574;BME280;66710;48.868;9.080;2023-03-12T10:56:56;97668.34;;;7.42;83.72
77574;BME280;66710;48.868;9.080;2023-03-12T10:59:26;97677.56;;;7.46;84.09
77574;BME280;66710;48.868;9.080;2023-03-12T11:01:53;97671.44;;;7.60;84.11
77574;BME280;66710;48.868;9.080;2023-03-12T11:04:23;97674.31;;;7.91;82.74
77574;BME280;66710;48.868;9.080;2023-03-12T11:12:31;97663.09;;;8.30;81.61
77574;BME280;66710;48.868;9.080;2023-03-12T11:14:57;97665.06;;;8.50;81.02
77574;BME280;66710;48.868;9.080;2023-03-12T11:17:25;97666.75;;;8.57;80.65
77574;BME280;66710;48.868;9.080;2023-03-12T11:19:52;97662.44;;;8.81;80.13
77574;BME280;66710;48.868;9.080;2023-03-12T11:22:32;97673.59;;;9.00;79.76
77574;BME280;66710;48.868;9.080;2023-03-12T11:25:04;97676.59;;;9.35;79.03
77574;BME280;66710;48.868;9.080;2023-03-12T11:27:40;97656.75;;;9.44;77.78
77574;BME280;66710;48.868;9.080;2023-03-12T11:30:11;97669.50;;;9.64;76.02
77574;BME280;66710;48.868;9.080;2023-03-12T11:32:46;97669.97;;;10.02;75.74
77574;BME280;66710;48.868;9.080;2023-03-12T11:35:15;97675.22;;;9.53;76.05
77574;BME280;66710;48.868;9.080;2023-03-12T11:41:00;97669.22;;;9.76;75.68
77574;BME280;66710;48.868;9.080;2023-03-12T11:43:53;97674.88;;;9.90;75.77
77574;BME280;66710;48.868;9.080;2023-03-12T11:46:29;97682.28;;;9.33;77.95
77574;BME280;66710;48.868;9.080;2023-03-12T11:49:13;97694.25;;;9.11;80.31
77574;BME280;66710;48.868;9.080;2023-03-12T11:54:40;97674.44;;;9.06;81.76
77574;BME280;66710;48.868;9.080;2023-03-12T11:57:37;97680.13;;;9.45;80.22
77574;BME280;66710;48.868;9.080;2023-03-12T12:03:16;97672.25;;;9.34;78.86
77574;BME280;66710;48.868;9.080;2023-03-12T12:08:46;97662.13;;;9.75;76.46
77574;BME280;66710;48.868;9.080;2023-03-12T12:11:46;97653.00;;;10.16;73.15
77574;BME280;66710;48.868;9.080;2023-03-12T12:20:09;97667.66;;;10.25;72.35
77574;BME280;66710;48.868;9.080;2023-03-12T12:31:28;97642.63;;;10.28;70.70
77574;BME280;66710;48.868;9.080;2023-03-12T12:36:54;97626.81;;;10.35;70.71
77574;BME280;66710;48.868;9.080;2023-03-12T12:41:53;97632.00;;;10.27;71.28
77574;BME280;66710;48.868;9.080;2023-03-12T12:44:33;97625.53;;;10.17;71.17
77574;BME280;66710;48.868;9.080;2023-03-12T12:47:03;97629.66;;;10.10;72.06
77574;BME280;66710;48.868;9.080;2023-03-12T12:49:43;97632.03;;;10.16;71.58
77574;BME280;66710;48.868;9.080;2023-03-12T12:52:12;97640.59;;;9.94;71.41
77574;BME280;66710;48.868;9.080;2023-03-12T12:57:49;97644.66;;;9.92;72.14
77574;BME280;66710;48.868;9.080;2023-03-12T13:00:39;97635.97;;;9.84;72.55
77574;BME280;66710;48.868;9.080;2023-03-12T13:03:12;97647.69;;;9.85;72.83
77574;BME280;66710;48.868;9.080;2023-03-12T13:08:58;97658.09;;;9.52;74.46
77574;BME280;66710;48.868;9.080;2023-03-12T13:11:28;97652.66;;;9.52;74.81
77574;BME280;66710;48.868;9.080;2023-03-12T13:16:39;97669.75;;;9.68;74.36
77574;BME280;66710;48.868;9.080;2023-03-12T13:27:12;97642.25;;;11.58;67.62
77574;BME280;66710;48.868;9.080;2023-03-12T13:29:41;97655.66;;;11.84;66.54
77574;BME280;66710;48.868;9.080;2023-03-12T13:43:15;97621.16;;;11.40;63.33
77574;BME280;66710;48.868;9.080;2023-03-12T13:48:17;97622.47;;;11.13;62.80
77574;BME280;66710;48.868;9.080;2023-03-12T13:51:37;97616.56;;;11.01;62.81
77574;BME280;66710;48.868;9.080;2023-03-12T13:53:38;97613.53;;;10.73;63.17
77574;BME280;66710;48.868;9.080;2023-03-12T13:56:10;97618.50;;;10.61;64.24
77574;BME280;66710;48.868;9.080;2023-03-12T13:58:53;97610.94;;;10.53;64.83
77574;BME280;66710;48.868;9.080;2023-03-12T14:01:22;97616.97;;;10.44;65.87
77574;BME280;66710;48.868;9.080;2023-03-12T14:03:57;97629.81;;;10.34;66.89
77574;BME280;66710;48.868;9.080;2023-03-12T14:06:26;97641.31;;;10.15;67.92
77574;BME280;66710;48.868;9.080;2023-03-12T14:09:12;97650.66;;;9.99;70.14
77574;BME280;66710;48.868;9.080;2023-03-12T14:12:11;97658.59;;;9.75;72.19
77574;BME280;66710;48.868;9.080;2023-03-12T14:17:25;97654.50;;;9.72;71.54
77574;BME280;66710;48.868;9.080;2023-03-12T14:20:03;97658.56;;;9.85;69.98
77574;BME280;66710;48.868;9.080;2023-03-12T14:22:33;97670.28;;;9.80;70.57
77574;BME280;66710;48.868;9.080;2023-03-12T14:25:10;97672.19;;;9.85;70.22
77574;BME280;66710;48.868;9.080;2023-03-12T14:27:37;97655.84;;;9.90;70.31
77574;BME280;66710;48.868;9.080;2023-03-12T14:30:11;97647.81;;;10.19;70.74
77574;BME280;66710;48.868;9.080;2023-03-12T14:32:41;97655.25;;;9.98;70.31
77574;BME280;66710;48.868;9.080;2023-03-12T14:37:50;97656.59;;;10.06;70.42
77574;BME280;66710;48.868;9.080;2023-03-12T14:43:28;97637.38;;;10.47;69.27
77574;BME280;66710;48.868;9.080;2023-03-12T14:46:04;97625.56;;;10.62;68.16